Time;durP1;ratioP1;P1;durP2;ratioP2;P2;SDS_P1;SDS_P2;PMS_P1;PMS_P2;Temp;Humidity;BMP_temperature;BMP_pressure;BME280_temperature;BME280_humidity;BME280_pressure;Samples;Min_cycle;Max_cycle;Signal;HPM_P1;HPM_P2
2023/04/08 00:00:33;;;;;;;25.95;17.02;;;;;;;-146.26;100.00;59860.63;4988125;28;20057;-72
2023/04/08 00:02:58;;;;;;;39.58;31.00;;;;;;;-146.26;100.00;59860.63;4987915;28;20039;-72
2023/04/08 00:05:24;;;;;;;42.45;29.00;;;;;;;-146.26;100.00;59860.63;4984838;28;20054;-72
2023/04/08 00:07:50;;;;;;;37.75;29.33;;;;;;;-146.26;100.00;59860.63;4984562;28;20049;-71
2023/04/08 00:10:15;;;;;;;37.28;29.85;;;;;;;-146.26;100.00;59860.63;4985122;28;20034;-72
2023/04/08 00:12:41;;;;;;;38.78;29.20;;;;;;;-146.26;100.00;59860.63;4988518;28;20330;-71
2023/04/08 00:15:06;;;;;;;36.05;29.27;;;;;;;-146.26;100.00;59860.63;4986973;28;20053;-71
2023/04/08 00:17:32;;;;;;;39.15;31.33;;;;;;;-146.26;100.00;59860.63;4985670;28;20909;-71
2023/04/08 00:19:57;;;;;;;37.75;30.98;;;;;;;-146.26;100.00;59860.63;4982029;28;20076;-71
2023/04/08 00:22:23;;;;;;;37.45;29.30;;;;;;;-146.26;100.00;59860.63;4988973;28;20066;-71
2023/04/08 00:24:49;;;;;;;38.75;29.48;;;;;;;-146.26;100.00;59860.63;4990323;28;20031;-71
2023/04/08 00:27:14;;;;;;;30.75;19.52;;;;;;;-146.26;100.00;59860.63;4993068;28;20126;-71
2023/04/08 00:29:40;;;;;;;38.47;30.38;;;;;;;-146.26;100.00;59860.63;4992312;28;20046;-71
2023/04/08 00:32:06;;;;;;;36.13;30.10;;;;;;;-146.26;100.00;59860.63;4989959;28;20046;-72
2023/04/08 00:34:31;;;;;;;42.20;32.65;;;;;;;-146.26;100.00;59860.63;4985344;28;20061;-72
2023/04/08 00:36:58;;;;;;;38.00;30.05;;;;;;;-146.26;100.00;59860.63;4984262;28;20141;-71
2023/04/08 00:39:24;;;;;;;39.92;31.92;;;;;;;-146.26;100.00;59860.63;4985703;28;20403;-72
2023/04/08 00:41:50;;;;;;;40.45;32.45;;;;;;;-146.26;100.00;59860.63;4984460;28;20123;-72
2023/04/08 00:44:15;;;;;;;42.60;32.90;;;;;;;-146.26;100.00;59860.63;4985370;28;20062;-73
2023/04/08 00:46:41;;;;;;;43.63;31.58;;;;;;;-146.26;100.00;59860.63;4984116;28;20418;-72
2023/04/08 00:49:07;;;;;;;46.42;32.45;;;;;;;-146.26;100.00;59860.63;4987081;28;20112;-73
2023/04/08 00:51:35;;;;;;;30.42;19.00;;;;;;;-146.26;100.00;59860.63;4987334;28;20414;-72
2023/04/08 00:54:03;;;;;;;30.98;20.55;;;;;;;-146.26;100.00;59860.63;4983420;28;20061;-72
2023/04/08 00:56:30;;;;;;;39.05;33.65;;;;;;;-146.26;100.00;59860.63;4986104;28;20051;-73
2023/04/08 00:58:56;;;;;;;39.90;30.80;;;;;;;-146.26;100.00;59860.63;4987426;28;20058;-71
2023/04/08 01:01:31;;;;;;;37.97;31.75;;;;;;;-146.26;100.00;59860.63;4985941;28;20113;-72
2023/04/08 01:04:11;;;;;;;40.78;30.73;;;;;;;-146.26;100.00;59860.63;4988756;28;20049;-72
2023/04/08 01:06:41;;;;;;;43.50;34.25;;;;;;;-146.26;100.00;59860.63;4986534;28;20101;-73
2023/04/08 01:09:09;;;;;;;46.35;31.10;;;;;;;-146.26;100.00;59860.63;4986354;28;20590;-72
2023/04/08 01:11:40;;;;;;;37.92;32.25;;;;;;;-146.26;100.00;59860.63;4985048;28;20038;-73
2023/04/08 01:14:09;;;;;;;40.67;31.85;;;;;;;-146.26;100.00;59860.63;4987773;28;20725;-72
2023/04/08 01:16:38;;;;;;;42.05;33.88;;;;;;;-146.26;100.00;59860.63;4976081;28;20039;-72
2023/04/08 01:19:07;;;;;;;46.70;32.75;;;;;;;-146.26;100.00;59860.63;4980756;28;20038;-72
2023/04/08 01:21:36;;;;;;;35.10;20.55;;;;;;;-146.26;100.00;59860.63;4985625;28;20486;-72
2023/04/08 01:24:16;;;;;;;44.25;33.72;;;;;;;-146.26;100.00;59860.63;4987751;28;20786;-72
2023/04/08 01:26:43;;;;;;;39.45;32.38;;;;;;;-146.26;100.00;59860.63;4986595;28;20074;-72
2023/04/08 01:29:11;;;;;;;45.75;33.80;;;;;;;-146.26;100.00;59860.63;4981535;28;20491;-71
2023/04/08 01:31:38;;;;;;;33.47;19.77;;;;;;;-146.26;100.00;59860.63;4986992;28;20066;-72
2023/04/08 01:34:05;;;;;;;38.03;20.42;;;;;;;-146.26;100.00;59860.63;4987861;28;20030;-71
2023/04/08 01:36:31;;;;;;;44.72;33.25;;;;;;;-146.26;100.00;59860.63;4983333;28;20065;-71
2023/04/08 01:39:00;;;;;;;43.20;33.53;;;;;;;-146.26;100.00;59860.63;4985025;28;20054;-72
2023/04/08 01:41:26;;;;;;;49.35;36.05;;;;;;;-146.26;100.00;59860.63;4981857;28;20094;-71
2023/04/08 01:43:53;;;;;;;46.25;36.10;;;;;;;-146.26;100.00;59860.63;4982118;28;20510;-71
2023/04/08 01:46:20;;;;;;;31.42;21.02;;;;;;;-146.26;100.00;59860.63;4986652;28;20052;-73
2023/04/08 01:48:47;;;;;;;34.22;22.73;;;;;;;-146.26;100.00;59860.63;4985929;28;20402;-71
2023/04/08 01:51:14;;;;;;;37.40;30.58;;;;;;;-146.26;100.00;59860.63;4988590;28;20434;-72
2023/04/08 01:53:39;;;;;;;48.45;32.25;;;;;;;-146.26;100.00;59860.63;4983027;28;20058;-71
2023/04/08 01:56:09;;;;;;;30.40;20.35;;;;;;;-146.26;100.00;59860.63;4989914;28;20410;-73
2023/04/08 01:58:45;;;;;;;36.88;20.50;;;;;;;-146.26;100.00;59860.63;4989140;28;20049;-70
2023/04/08 02:01:15;;;;;;;35.70;23.58;;;;;;;-146.26;100.00;59860.63;4991476;28;20041;-73
2023/04/08 02:03:43;;;;;;;56.85;44.85;;;;;;;-146.26;100.00;59860.63;4990346;28;20097;-73
2023/04/08 02:06:08;;;;;;;57.60;41.83;;;;;;;-146.26;100.00;59860.63;4990352;28;20044;-73
2023/04/08 02:08:35;;;;;;;32.42;22.67;;;;;;;-146.26;100.00;59860.63;4989802;28;20047;-73
2023/04/08 02:11:02;;;;;;;34.85;22.15;;;;;;;-146.26;100.00;59860.63;4984956;28;20042;-73
2023/04/08 02:13:28;;;;;;;51.97;37.55;;;;;;;-146.26;100.00;59860.63;4982345;28;20034;-73
2023/04/08 02:16:03;;;;;;;47.42;36.50;;;;;;;-146.26;100.00;59860.63;4990018;28;20045;-73
2023/04/08 02:18:31;;;;;;;41.08;25.67;;;;;;;-146.26;100.00;59860.63;4982318;28;20046;-71
2023/04/08 02:21:26;;;;;;;31.23;20.67;;;;;;;-146.26;100.00;59860.63;4989196;28;20050;-71
2023/04/08 02:23:53;;;;;;;35.00;21.67;;;;;;;-146.26;100.00;59860.63;5004244;28;20038;-73
2023/04/08 02:26:21;;;;;;;36.00;21.70;;;;;;;-146.26;100.00;59860.63;4982369;28;20054;-72
2023/04/08 02:28:48;;;;;;;51.33;37.40;;;;;;;-146.26;100.00;59860.63;4989372;28;20529;-73
2023/04/08 02:31:17;;;;;;;44.97;33.55;;;;;;;-146.26;100.00;59860.63;4990963;28;20026;-71
2023/04/08 02:33:43;;;;;;;33.00;21.95;;;;;;;-146.26;100.00;59860.63;4986018;28;20057;-71
2023/04/08 02:36:11;;;;;;;37.22;23.15;;;;;;;-146.26;100.00;59860.63;4987659;28;20050;-72
2023/04/08 02:38:36;;;;;;;49.63;36.55;;;;;;;-146.26;100.00;59860.63;4990131;28;20137;-73
2023/04/08 02:41:02;;;;;;;37.72;25.17;;;;;;;-146.26;100.00;59860.63;4978848;28;20212;-72
2023/04/08 02:43:31;;;;;;;43.78;23.80;;;;;;;-146.26;100.00;59860.63;4990410;28;20030;-73
2023/04/08 02:46:02;;;;;;;37.40;23.33;;;;;;;-146.26;100.00;59860.63;4988986;28;20663;-72
2023/04/08 02:48:27;;;;;;;51.08;35.78;;;;;;;-146.26;100.00;59860.63;4985125;28;20125;-73
2023/04/08 02:50:53;;;;;;;41.42;21.10;;;;;;;-146.26;100.00;59860.63;4988559;28;20743;-73
2023/04/08 02:53:18;;;;;;;48.47;35.53;;;;;;;-146.26;100.00;59860.63;4987032;28;20146;-72
2023/04/08 02:55:44;;;;;;;32.83;22.50;;;;;;;-146.26;100.00;59860.63;4989121;28;20124;-72
2023/04/08 02:58:10;;;;;;;37.47;22.50;;;;;;;-146.26;100.00;59860.63;4989939;28;20489;-73
2023/04/08 03:00:38;;;;;;;52.65;38.17;;;;;;;-146.26;100.00;59860.63;4986108;28;20050;-71
2023/04/08 03:03:04;;;;;;;36.00;23.02;;;;;;;-146.26;100.00;59860.63;4983680;28;20078;-72
2023/04/08 03:05:29;;;;;;;37.78;23.65;;;;;;;-146.26;100.00;59860.63;4987921;28;20081;-72
2023/04/08 03:07:55;;;;;;;37.42;22.90;;;;;;;-146.26;100.00;59860.63;4985959;28;20050;-71
2023/04/08 03:10:20;;;;;;;47.08;36.05;;;;;;;-146.26;100.00;59860.63;4985340;28;20031;-71
2023/04/08 03:12:46;;;;;;;58.72;40.00;;;;;;;-146.26;100.00;59860.63;4986603;28;20038;-71
2023/04/08 03:15:11;;;;;;;49.17;37.22;;;;;;;-146.26;100.00;59860.63;4986834;28;20042;-72
2023/04/08 03:17:37;;;;;;;35.50;22.83;;;;;;;-146.26;100.00;59860.63;4982122;28;20462;-71
2023/04/08 03:20:03;;;;;;;36.03;22.83;;;;;;;-146.26;100.00;59860.63;4993715;28;20050;-71
2023/04/08 03:22:29;;;;;;;51.97;38.28;;;;;;;-146.26;100.00;59860.63;4993456;28;20030;-71
2023/04/08 03:24:55;;;;;;;34.25;22.70;;;;;;;-146.26;100.00;59860.63;4990704;28;20034;-72
2023/04/08 03:27:20;;;;;;;59.28;38.33;;;;;;;-146.26;100.00;59860.63;4986311;28;20131;-72
2023/04/08 03:29:46;;;;;;;51.28;37.55;;;;;;;-146.26;100.00;59860.63;4987182;28;20089;-71
2023/04/08 03:32:12;;;;;;;44.60;26.48;;;;;;;-146.26;100.00;59860.63;4986375;28;20410;-73
2023/04/08 03:34:37;;;;;;;52.80;36.58;;;;;;;-146.26;100.00;59860.63;4989216;28;20058;-74
2023/04/08 03:37:03;;;;;;;37.00;24.27;;;;;;;-146.26;100.00;59860.63;4988113;28;20038;-71
2023/04/08 03:39:28;;;;;;;33.15;23.02;;;;;;;-146.26;100.00;59860.63;4987673;28;20050;-72
2023/04/08 03:41:54;;;;;;;39.45;23.08;;;;;;;-146.26;100.00;59860.63;4988547;28;20048;-73
2023/04/08 03:44:20;;;;;;;53.50;38.83;;;;;;;-146.26;100.00;59860.63;4985446;28;20054;-74
2023/04/08 03:46:45;;;;;;;56.38;39.35;;;;;;;-146.26;100.00;59860.63;4987909;28;20564;-71
2023/04/08 03:49:11;;;;;;;55.50;40.10;;;;;;;-146.26;100.00;59860.63;4989802;28;20038;-73
2023/04/08 03:51:36;;;;;;;52.03;36.40;;;;;;;-146.26;100.00;59860.63;4980354;28;20054;-72
2023/04/08 03:54:02;;;;;;;53.60;39.75;;;;;;;-146.26;100.00;59860.63;4987889;28;20569;-71
2023/04/08 03:56:27;;;;;;;36.97;24.65;;;;;;;-146.26;100.00;59860.63;4988840;28;20092;-73
2023/04/08 03:58:53;;;;;;;55.58;38.60;;;;;;;-146.26;100.00;59860.63;4988805;28;20054;-73
2023/04/08 04:01:18;;;;;;;52.25;41.92;;;;;;;-146.26;100.00;59860.63;4988774;28;20050;-71
2023/04/08 04:03:44;;;;;;;39.08;25.02;;;;;;;-146.26;100.00;59860.63;4987666;28;20023;-71
2023/04/08 04:06:09;;;;;;;55.95;40.13;;;;;;;-146.26;100.00;59860.63;4986848;28;20120;-71
2023/04/08 04:08:35;;;;;;;51.13;40.22;;;;;;;-146.26;100.00;59860.63;4982712;28;20066;-72
2023/04/08 04:11:01;;;;;;;51.88;38.95;;;;;;;-146.26;100.00;59860.63;4986297;28;20084;-72
2023/04/08 04:13:26;;;;;;;61.25;42.72;;;;;;;-146.26;100.00;59860.63;4987664;28;20034;-73
2023/04/08 04:15:52;;;;;;;59.08;41.13;;;;;;;-146.26;100.00;59860.63;4987238;28;20467;-72
2023/04/08 04:18:17;;;;;;;57.40;44.38;;;;;;;-146.26;100.00;59860.63;5009553;28;20099;-72
2023/04/08 04:20:43;;;;;;;38.85;24.98;;;;;;;-146.26;100.00;59860.63;4989337;28;20055;-73
2023/04/08 04:23:09;;;;;;;36.25;26.15;;;;;;;-146.26;100.00;59860.63;4988459;28;20054;-72
2023/04/08 04:25:34;;;;;;;66.15;46.22;;;;;;;-146.26;100.00;59860.63;4987550;28;20391;-72
2023/04/08 04:28:01;;;;;;;60.97;45.30;;;;;;;-146.26;100.00;59860.63;4978084;28;20096;-73
2023/04/08 04:30:27;;;;;;;47.95;28.42;;;;;;;-146.26;100.00;59860.63;4986826;28;20836;-72
2023/04/08 04:32:52;;;;;;;68.90;45.65;;;;;;;-146.26;100.00;59860.63;4984893;28;20133;-72
2023/04/08 04:35:18;;;;;;;66.05;43.55;;;;;;;-146.26;100.00;59860.63;4986285;28;20049;-72
2023/04/08 04:37:43;;;;;;;44.38;27.77;;;;;;;-146.26;100.00;59860.63;4988214;28;20462;-73
2023/04/08 04:40:09;;;;;;;63.25;44.80;;;;;;;-146.26;100.00;59860.63;4984521;28;20047;-71
2023/04/08 04:42:35;;;;;;;72.65;49.80;;;;;;;-146.26;100.00;59860.63;4986811;28;20495;-71
2023/04/08 04:45:00;;;;;;;61.53;46.38;;;;;;;-146.26;100.00;59860.63;4987323;28;20495;-71
2023/04/08 04:47:26;;;;;;;52.33;29.30;;;;;;;-146.26;100.00;59860.63;4978680;28;20220;-71
2023/04/08 04:49:51;;;;;;;39.83;26.63;;;;;;;-146.26;100.00;59860.63;4983325;28;20046;-72
2023/04/08 04:52:17;;;;;;;69.97;49.92;;;;;;;-146.26;100.00;59860.63;4985466;28;20045;-72
2023/04/08 04:54:42;;;;;;;71.15;47.88;;;;;;;-146.26;100.00;59860.63;4982704;28;20037;-72
2023/04/08 04:57:09;;;;;;;67.10;50.22;;;;;;;-146.26;100.00;59860.63;4986947;28;20383;-72
2023/04/08 04:59:35;;;;;;;62.22;45.90;;;;;;;-146.26;100.00;59860.63;4982663;28;20054;-73
2023/04/08 05:02:01;;;;;;;67.60;49.05;;;;;;;-146.26;100.00;59860.63;4979886;28;20049;-73
2023/04/08 05:04:26;;;;;;;62.85;48.55;;;;;;;-146.26;100.00;59860.63;4985391;28;20108;-73
2023/04/08 05:06:52;;;;;;;68.53;48.03;;;;;;;-146.26;100.00;59860.63;4985477;28;20038;-74
2023/04/08 05:09:17;;;;;;;50.20;29.55;;;;;;;-146.26;100.00;59860.63;4980732;28;20053;-73
2023/04/08 05:11:43;;;;;;;61.70;47.63;;;;;;;-146.26;100.00;59860.63;4986014;28;20046;-73
2023/04/08 05:14:08;;;;;;;63.38;46.25;;;;;;;-146.26;100.00;59860.63;4983576;28;20046;-72
2023/04/08 05:16:34;;;;;;;63.30;46.03;;;;;;;-146.26;100.00;59860.63;4986672;28;20826;-72
2023/04/08 05:19:00;;;;;;;40.45;27.67;;;;;;;-146.26;100.00;59860.63;4981013;28;20045;-72
2023/04/08 05:21:26;;;;;;;47.25;28.80;;;;;;;-146.26;100.00;59860.63;4979458;28;20053;-72
2023/04/08 05:23:52;;;;;;;41.83;25.88;;;;;;;-146.26;100.00;59860.63;4987309;28;20046;-72
2023/04/08 05:26:21;;;;;;;50.13;28.73;;;;;;;-146.26;100.00;59860.63;4986044;28;20054;-72
2023/04/08 05:28:47;;;;;;;70.22;50.33;;;;;;;-146.26;100.00;59860.63;4981986;28;20039;-71
2023/04/08 05:31:19;;;;;;;63.50;47.10;;;;;;;-146.26;100.00;59860.63;4985755;28;20158;-72
2023/04/08 05:33:45;;;;;;;46.70;29.42;;;;;;;-146.26;100.00;59860.63;4986906;28;20121;-72
2023/04/08 05:36:12;;;;;;;51.45;30.50;;;;;;;-146.26;100.00;59860.63;4986030;28;20065;-71
2023/04/08 05:38:39;;;;;;;51.30;28.95;;;;;;;-146.26;100.00;59860.63;4980998;28;20057;-72
2023/04/08 05:41:05;;;;;;;81.72;52.33;;;;;;;-146.26;100.00;59860.63;4983720;28;20096;-71
2023/04/08 05:43:33;;;;;;;43.97;28.08;;;;;;;-146.26;100.00;59860.63;4986384;28;20042;-72
2023/04/08 05:45:59;;;;;;;68.28;48.10;;;;;;;-146.26;100.00;59860.63;4987229;28;20557;-72
2023/04/08 05:48:25;;;;;;;52.92;30.00;;;;;;;-146.26;100.00;59860.63;4981177;28;20038;-71
2023/04/08 05:50:50;;;;;;;53.45;29.58;;;;;;;-146.26;100.00;59860.63;4981074;28;20097;-72
2023/04/08 05:53:16;;;;;;;47.38;30.52;;;;;;;-146.26;100.00;59860.63;4984970;28;20054;-71
2023/04/08 05:55:41;;;;;;;51.13;32.40;;;;;;;-146.26;100.00;59860.63;4985461;28;20193;-71
2023/04/08 05:58:07;;;;;;;48.22;31.27;;;;;;;-146.26;100.00;59860.63;4982762;28;20030;-72
2023/04/08 06:00:32;;;;;;;49.85;33.13;;;;;;;-146.26;100.00;59860.63;4979612;28;20481;-71
2023/04/08 06:02:58;;;;;;;49.90;29.67;;;;;;;-146.26;100.00;59860.63;4987200;28;20049;-72
2023/04/08 06:05:24;;;;;;;50.92;30.40;;;;;;;-146.26;100.00;59860.63;4985413;28;20038;-72
2023/04/08 06:07:49;;;;;;;75.07;51.05;;;;;;;-146.26;100.00;59860.63;4986005;28;20046;-72
2023/04/08 06:10:15;;;;;;;53.05;31.27;;;;;;;-146.26;100.00;59860.63;4983205;28;20442;-72
2023/04/08 06:12:40;;;;;;;52.33;29.73;;;;;;;-146.26;100.00;59860.63;4987074;28;20050;-72
2023/04/08 06:15:07;;;;;;;58.85;33.35;;;;;;;-146.26;100.00;59860.63;4991612;28;20038;-72
2023/04/08 06:17:35;;;;;;;45.35;26.45;;;;;;;-146.26;100.00;59860.63;4988354;28;20047;-72
2023/04/08 06:20:01;;;;;;;46.08;29.27;;;;;;;-146.26;100.00;59860.63;4988034;28;20113;-73
2023/04/08 06:22:26;;;;;;;53.00;33.22;;;;;;;-146.26;100.00;59860.63;4986858;28;20045;-73
2023/04/08 06:24:51;;;;;;;43.97;30.80;;;;;;;-146.26;100.00;59860.63;4984282;28;20036;-72
2023/04/08 06:27:17;;;;;;;70.78;53.00;;;;;;;-146.26;100.00;59860.63;4986596;28;20039;-73
2023/04/08 06:29:42;;;;;;;73.65;50.97;;;;;;;-146.26;100.00;59860.63;4983492;28;20238;-72
2023/04/08 06:32:08;;;;;;;52.35;32.50;;;;;;;-146.26;100.00;59860.63;4986010;28;20494;-72
2023/04/08 06:34:33;;;;;;;47.45;29.45;;;;;;;-146.26;100.00;59860.63;4988574;28;20034;-72
2023/04/08 06:36:59;;;;;;;65.63;50.42;;;;;;;-146.26;100.00;59860.63;4990452;28;20092;-72
2023/04/08 06:39:24;;;;;;;61.97;52.13;;;;;;;-146.26;100.00;59860.63;4989157;28;20053;-74
2023/04/08 06:41:51;;;;;;;43.80;28.90;;;;;;;-146.26;100.00;59860.63;4988916;28;20043;-72
2023/04/08 06:44:16;;;;;;;50.33;28.67;;;;;;;-146.26;100.00;59860.63;4988261;28;20054;-71
2023/04/08 06:46:42;;;;;;;46.85;30.20;;;;;;;-146.26;100.00;59860.63;4987817;28;20105;-71
2023/04/08 06:49:07;;;;;;;49.13;28.42;;;;;;;-146.26;100.00;59860.63;4987821;28;20039;-71
2023/04/08 06:51:33;;;;;;;54.33;29.13;;;;;;;-146.26;100.00;59860.63;4980348;28;20114;-70
2023/04/08 06:53:58;;;;;;;62.30;42.13;;;;;;;-146.26;100.00;59860.63;4987401;28;20050;-74
2023/04/08 06:56:25;;;;;;;67.13;51.88;;;;;;;-146.26;100.00;59860.63;4988881;28;20677;-72
2023/04/08 06:58:51;;;;;;;66.47;47.00;;;;;;;-146.26;100.00;59860.63;4983703;28;20050;-71
2023/04/08 07:01:17;;;;;;;76.30;51.65;;;;;;;-146.26;100.00;59860.63;4981205;28;20030;-72
2023/04/08 07:03:42;;;;;;;44.60;27.42;;;;;;;-146.26;100.00;59860.63;4997798;28;20070;-71
2023/04/08 07:06:08;;;;;;;65.03;43.70;;;;;;;-146.26;100.00;59860.63;4987244;28;20097;-72
2023/04/08 07:08:34;;;;;;;63.20;44.03;;;;;;;-146.26;100.00;59860.63;4989194;28;20054;-71
2023/04/08 07:10:59;;;;;;;59.03;41.60;;;;;;;-146.26;100.00;59860.63;4982303;28;20061;-72
2023/04/08 07:13:25;;;;;;;52.72;40.78;;;;;;;-146.26;100.00;59860.63;4988877;28;20034;-72
2023/04/08 07:15:51;;;;;;;51.88;39.80;;;;;;;-146.26;100.00;59860.63;4986224;28;20701;-72
2023/04/08 07:18:16;;;;;;;53.28;38.03;;;;;;;-146.26;100.00;59860.63;4986344;28;20046;-71
2023/04/08 07:20:42;;;;;;;55.00;40.85;;;;;;;-146.26;100.00;59860.63;4982594;28;20035;-73
2023/04/08 07:23:08;;;;;;;52.63;37.33;;;;;;;-146.26;100.00;59860.63;4977809;28;20117;-70
2023/04/08 07:25:34;;;;;;;48.53;38.33;;;;;;;-146.26;100.00;59860.63;4986891;28;20034;-71
2023/04/08 07:28:00;;;;;;;54.72;38.50;;;;;;;-146.26;100.00;59860.63;4983824;28;20117;-71
2023/04/08 07:30:25;;;;;;;47.65;34.55;;;;;;;-146.26;100.00;59860.63;4985477;28;20142;-69
2023/04/08 07:32:51;;;;;;;42.97;34.03;;;;;;;-146.26;100.00;59860.63;4978639;28;20042;-71
2023/04/08 07:35:22;;;;;;;40.90;31.40;;;;;;;-146.26;100.00;59860.63;4984667;28;20034;-72
2023/04/08 07:37:49;;;;;;;42.90;33.90;;;;;;;-146.26;100.00;59860.63;4986468;28;20061;-72
2023/04/08 07:40:14;;;;;;;44.88;34.55;;;;;;;-146.26;100.00;59860.63;4988250;28;20125;-71
2023/04/08 07:42:40;;;;;;;42.45;33.33;;;;;;;-146.26;100.00;59860.63;4985640;28;20130;-71
2023/04/08 07:45:06;;;;;;;41.25;33.45;;;;;;;-146.26;100.00;59860.63;4986895;28;20322;-73
2023/04/08 07:47:32;;;;;;;34.08;27.83;;;;;;;-146.26;100.00;59860.63;4986790;28;20143;-70
2023/04/08 07:49:57;;;;;;;37.30;29.92;;;;;;;-146.26;100.00;59860.63;4983334;28;20500;-71
2023/04/08 07:52:23;;;;;;;38.67;27.10;;;;;;;-146.26;100.00;59860.63;4987096;28;20038;-73
2023/04/08 07:54:48;;;;;;;39.92;29.27;;;;;;;-146.26;100.00;59860.63;4985160;28;20038;-72
2023/04/08 07:57:14;;;;;;;42.35;28.92;;;;;;;-146.26;100.00;59860.63;4985559;28;20074;-72
2023/04/08 07:59:40;;;;;;;36.92;27.92;;;;;;;-146.26;100.00;59860.63;4985903;28;20081;-74
2023/04/08 08:02:05;;;;;;;33.85;27.33;;;;;;;-146.26;100.00;59860.63;4982169;28;20089;-73
2023/04/08 08:04:31;;;;;;;31.10;27.40;;;;;;;-146.26;100.00;59860.63;4984841;28;20403;-73
2023/04/08 08:06:56;;;;;;;42.33;28.85;;;;;;;-146.26;100.00;59860.63;4987857;28;20034;-73
2023/04/08 08:09:22;;;;;;;34.75;29.15;;;;;;;-146.26;100.00;59860.63;4985839;28;20069;-73
2023/04/08 08:11:48;;;;;;;35.70;28.70;;;;;;;-146.26;100.00;59860.63;4984827;28;20058;-72
2023/04/08 08:14:13;;;;;;;30.23;25.33;;;;;;;-146.26;100.00;59860.63;4971690;28;20562;-72
2023/04/08 08:16:39;;;;;;;31.13;27.20;;;;;;;-146.26;100.00;59860.63;4984873;28;20085;-72
2023/04/08 08:19:06;;;;;;;30.27;26.42;;;;;;;-146.26;100.00;59860.63;4984279;28;20038;-73
2023/04/08 08:21:32;;;;;;;32.70;25.52;;;;;;;-146.26;100.00;59860.63;4984318;28;20192;-72
2023/04/08 08:23:58;;;;;;;35.78;26.33;;;;;;;-146.26;100.00;59860.63;4985209;28;20491;-72
2023/04/08 08:26:24;;;;;;;39.35;29.38;;;;;;;-146.26;100.00;59860.63;4957624;28;20046;-73
2023/04/08 08:28:50;;;;;;;34.67;29.20;;;;;;;-146.26;100.00;59860.63;4975440;28;20060;-70
2023/04/08 08:31:15;;;;;;;35.53;27.95;;;;;;;-146.26;100.00;59860.63;4981412;28;20037;-70
2023/04/08 08:33:41;;;;;;;34.90;28.95;;;;;;;-146.26;100.00;59860.63;4984428;28;20469;-72
2023/04/08 08:36:06;;;;;;;32.40;28.05;;;;;;;-146.26;100.00;59860.63;4984595;28;20054;-72
2023/04/08 08:38:32;;;;;;;44.28;30.80;;;;;;;-146.26;100.00;59860.63;4980181;28;20094;-72
2023/04/08 08:41:00;;;;;;;40.42;28.35;;;;;;;-146.26;100.00;59860.63;4982663;28;20042;-73
2023/04/08 08:43:27;;;;;;;33.00;28.30;;;;;;;-146.26;100.00;59860.63;4983936;28;20658;-70
2023/04/08 08:45:53;;;;;;;34.05;28.38;;;;;;;-146.26;100.00;59860.63;4983320;28;20042;-74
2023/04/08 08:48:19;;;;;;;32.92;27.42;;;;;;;-146.26;100.00;59860.63;4983981;28;20208;-71
2023/04/08 08:50:45;;;;;;;30.75;27.45;;;;;;;-146.26;100.00;59860.63;4984643;28;20046;-71
2023/04/08 08:53:11;;;;;;;34.13;26.75;;;;;;;-146.26;100.00;59860.63;4982650;28;20058;-70
2023/04/08 08:55:38;;;;;;;32.58;27.15;;;;;;;-146.26;100.00;59860.63;4988105;28;20052;-70
2023/04/08 08:58:06;;;;;;;36.63;26.45;;;;;;;-146.26;100.00;59860.63;4985315;28;20095;-73
2023/04/08 09:00:33;;;;;;;41.90;26.35;;;;;;;-146.26;100.00;59860.63;4982392;28;20076;-71
2023/04/08 09:03:26;;;;;;;31.88;28.45;;;;;;;-146.26;100.00;59860.63;4984928;28;20057;-74
2023/04/08 09:05:57;;;;;;;34.15;27.85;;;;;;;-146.26;100.00;59860.63;4985204;28;20131;-74
2023/04/08 09:08:34;;;;;;;29.30;24.02;;;;;;;-146.26;100.00;59860.63;4989474;28;20081;-76
2023/04/08 09:11:20;;;;;;;44.17;28.85;;;;;;;-146.26;100.00;59860.63;4986781;28;20498;-78
2023/04/08 09:13:46;;;;;;;33.75;25.42;;;;;;;-146.26;100.00;59860.63;4982600;28;20100;-72
2023/04/08 09:16:15;;;;;;;32.00;25.98;;;;;;;-146.26;100.00;59860.63;4985092;28;20034;-71
2023/04/08 09:18:43;;;;;;;30.65;25.48;;;;;;;-146.26;100.00;59860.63;4980721;28;20097;-71
2023/04/08 09:21:10;;;;;;;34.78;27.10;;;;;;;-146.26;100.00;59860.63;4979000;28;20042;-72
2023/04/08 09:23:51;;;;;;;38.33;28.92;;;;;;;-146.26;100.00;59860.63;4984855;28;20142;-71
2023/04/08 09:26:23;;;;;;;39.25;25.85;;;;;;;-146.26;100.00;59860.63;4981476;28;20100;-72
2023/04/08 09:29:05;;;;;;;40.30;28.90;;;;;;;-146.26;100.00;59860.63;4984235;28;20145;-72
2023/04/08 09:31:37;;;;;;;40.80;28.83;;;;;;;-146.26;100.00;59860.63;4982549;28;20119;-72
2023/04/08 09:34:31;;;;;;;32.65;28.45;;;;;;;-146.26;100.00;59860.63;4980144;28;20038;-72
2023/04/08 09:36:56;;;;;;;34.63;29.42;;;;;;;-146.26;100.00;59860.63;4984782;28;20551;-72
2023/04/08 09:39:22;;;;;;;37.72;28.27;;;;;;;-146.26;100.00;59860.63;4981334;28;20124;-71
2023/04/08 09:41:49;;;;;;;34.38;29.65;;;;;;;-146.26;100.00;59860.63;4981507;28;20050;-71
2023/04/08 09:44:17;;;;;;;33.85;26.50;;;;;;;-146.26;100.00;59860.63;4985324;28;20034;-71
2023/04/08 09:46:49;;;;;;;37.58;28.02;;;;;;;-146.26;100.00;59860.63;4985417;28;20058;-72
2023/04/08 09:49:25;;;;;;;38.60;28.77;;;;;;;-146.26;100.00;59860.63;4985081;28;20121;-72
2023/04/08 09:52:12;;;;;;;33.20;26.85;;;;;;;-146.26;100.00;59860.63;4981831;28;20062;-71
2023/04/08 09:54:38;;;;;;;31.75;26.40;;;;;;;-146.26;100.00;59860.63;4980161;28;20470;-73
2023/04/08 09:57:15;;;;;;;37.85;25.83;;;;;;;-146.26;100.00;59860.63;4985615;28;20070;-70
2023/04/08 09:59:50;;;;;;;32.78;26.58;;;;;;;-146.26;100.00;59860.63;4983841;28;20051;-71
2023/04/08 10:02:22;;;;;;;38.15;29.13;;;;;;;-146.26;100.00;59860.63;4983132;28;20054;-71
2023/04/08 10:04:52;;;;;;;32.70;27.50;;;;;;;-146.26;100.00;59860.63;4980126;28;20395;-70
2023/04/08 10:07:18;;;;;;;33.38;28.83;;;;;;;-146.26;100.00;59860.63;4986001;28;20180;-72
2023/04/08 10:09:44;;;;;;;34.33;28.95;;;;;;;-146.26;100.00;59860.63;4988592;28;20117;-71
2023/04/08 10:12:09;;;;;;;36.38;27.48;;;;;;;-146.26;100.00;59860.63;4988986;28;20049;-72
2023/04/08 10:14:35;;;;;;;30.65;26.70;;;;;;;-146.26;100.00;59860.63;4982240;28;20051;-75
2023/04/08 10:17:24;;;;;;;29.73;25.65;;;;;;;-146.26;100.00;59860.63;4982020;28;20796;-68
2023/04/08 10:19:49;;;;;;;37.15;26.95;;;;;;;-146.26;100.00;59860.63;4977519;28;20433;-69
2023/04/08 10:22:33;;;;;;;32.40;25.58;;;;;;;-146.26;100.00;59860.63;5006345;28;20060;-70
2023/04/08 10:25:17;;;;;;;;;;;;;;;-146.26;100.00;59860.63;5000734;28;20054;-70
2023/04/08 10:27:43;;;;;;;27.13;24.20;;;;;;;-146.26;100.00;59860.63;4981247;28;20408;-70
2023/04/08 10:30:27;;;;;;;27.95;23.80;;;;;;;-146.26;100.00;59860.63;4987517;28;20569;-71
2023/04/08 10:32:59;;;;;;;28.17;22.95;;;;;;;-146.26;100.00;59860.63;4982898;28;20047;-72
2023/04/08 10:35:33;;;;;;;30.83;24.92;;;;;;;-146.26;100.00;59860.63;4985521;28;20062;-69
2023/04/08 10:38:00;;;;;;;28.52;24.83;;;;;;;-146.26;100.00;59860.63;4983490;28;20774;-71
2023/04/08 10:40:25;;;;;;;26.10;22.42;;;;;;;-146.26;100.00;59860.63;4985993;28;20049;-70
2023/04/08 10:42:55;;;;;;;29.30;23.92;;;;;;;-146.26;100.00;59860.63;4986628;28;20348;-70
2023/04/08 10:45:21;;;;;;;25.17;22.52;;;;;;;-146.26;100.00;59860.63;4987695;28;20046;-73
2023/04/08 10:47:47;;;;;;;27.98;24.05;;;;;;;-146.26;100.00;59860.63;4987441;28;20061;-70
2023/04/08 10:50:13;;;;;;;27.85;24.40;;;;;;;-146.26;100.00;59860.63;4987284;28;20046;-73
2023/04/08 10:52:49;;;;;;;28.23;22.17;;;;;;;-146.26;100.00;59860.63;4985693;28;20066;-71
2023/04/08 10:55:15;;;;;;;29.48;21.42;;;;;;;-146.26;100.00;59860.63;4986033;28;20438;-74